Airfield :
LOGIN :

Register | Disclaimer

   EN    FR    IT 

 










Legend :    VFR   Marginal VFR   IFR   Intensive IFR   Very Intensive IFR
Visi :
Ceiling :
>= 8 km
>= 3000ft
5 to 8 km
1000 to 3000 ft
1500m to 5 km
500 to 1000 ft
800 to 1500m
200 to 500 ft
< 800m
< 200 ft
Symbols :   Thunderstorms  Fog  Heavy snow  Heavy precipitations  Wind > 20 kt
SIGMETs :     Misc.  Thunderstorms  Icing  Turbulence  Mountain Waves  Volcanic Ashes







- Airport Elevation : 15 ft
- IATA code : FCO


LIRF - Roma Leonardo da Vinci Fiumicino

CURRENT METAR :
  • 221220Z 19009KT 9999 SCT050 17/10 Q1020 NOSIG

EXPIRED METARs :
  • 221150Z 19008KT 160V230 9999 SCT050 17/10 Q1020 NOSIG
  • 221120Z 19008KT 9999 FEW050 18/10 Q1021 NOSIG
  • 221050Z 15006KT 120V210 9999 FEW050 18/09 Q1021 NOSIG
  • 221020Z 12007KT 090V160 9999 FEW050 17/11 Q1021 NOSIG
  • 220950Z 06004KT 040V100 9999 FEW050 15/11 Q1021 NOSIG

TAF TAF LIRF
Valid from the 22 at 12:00 until the 23 at 18:00 UTC


221100Z 2212/2318 17010KT 9999 FEW020
BECMG 2220/2222 11008KT
BECMG 2308/2310 17010KT
No reported NOTAMs for that airfield.



MET'MAP, your aeronautical weather chart ! - Copyright ORBIFLY December 2007 - Disclaimer

ORBIFLY MET'MAP TEAM :

Programming & Development : Alexandra Zaïnal
Concept & Development : Baudouin d'Aumeries
Co-Development & Prog : Marc-Olivier Méhu
Technical & hardware support : Manuel Goepfert

Contact : metmap@orbifly.com




SOURCES & CREDITS :

   NOAA